Akron, OH (44301)

10:08 PM EST on December 05, 2016 (GMT -0500)
Firestone Park | | Change Station

Elev 1115 ft 41.05 °N, 81.52 °W | Updated 36 seconds ago

Haze
Haze
26.7 °F
Feels Like 27 °F
N
0.0
Wind Variable Wind from NE

Today
High -- | Low -- °F
--% Chance of Precip.
Yesterday
High -- | Low -- °F
Precip. -- in
Pressure 30.08 in
Visibility 5.0 miles
Clouds Clear
Windchill 27 °F
Dew Point 26 °F
Humidity 98%
Rainfall 0.00 in
Snow Depth Not available.
7:36 AM 4:57 PM
Waxing Crescent, 37% visible
METAR KAKR 060254Z AUTO 00000KT 5SM HZ CLR M02/M05 A3005 RMK AO2 SLP186 I1000 I3000 T10221050 58007
Pressure 30.08 in
Visibility 5.0 miles
Clouds Clear
Windchill 27 °F
Dew Point 26 °F
Humidity 98%
Rainfall 0.00 in
Snow Depth Not available.
7:36 AM 4:57 PM
Waxing Crescent, 37% visible
METAR KAKR 060254Z AUTO 00000KT 5SM HZ CLR M02/M05 A3005 RMK AO2 SLP186 I1000 I3000 T10221050 58007

10-Day Weather Forecast

Almanac

Astronomy

Dec. 05, 2016 Rise Set
Actual Time
Civil Twilight
Nautical Twilight
Astronomical Twilight
Moon
Length of Visible Light
Length of Day
Tomorrow will be .
, % of the Moon is Illuminated

Today's Extremes

State Highs State Lows

Community

WunderPhotos

Upload Photos

1,955,914 photos uploaded!

WunderBlog® & News

Nearby

Air Quality

  Air Quality AQ Index Pollutant
Not available.

Snow Depth

Station Depth Elevation

Earthquake Activity

City Distance Mag. Time & Date
Minimum magnitude displayed is 2.5.

Coastal Water Temperatures

Place Temperature

Stations

Nearby Weather Stations

Station Location Temp. Windchill Dew Point Humidity Wind Precip. Elev Updated Type
                   

Watches & Warnings

There are currently no watches in effect.